Terminal Aerodrome Forecast
Issued by NWS

Home | Current Version | Previous Version | Text Only | Print | Product List | Glossary On
Versions: 1 2 3 4 5 6 7 8 9 10 11 12 13
333
FTUS46 KSTO 291732
TAFRBL
TAF
KRBL 291732Z 2918/3018 VRB06KT P6SM BKN150
     FM292200 17008KT P6SM VCSH OVC100
     FM300500 18008KT P6SM -RA OVC050
     FM301200 35010KT P6SM FEW250=

USA.gov is the U.S. government's official web portal to all federal, state and local government web resources and services.